Time;durP1;ratioP1;P1;durP2;ratioP2;P2;SDS_P1;SDS_P2;PMS_P1;PMS_P2;Temp;Humidity;BMP_temperature;BMP_pressure;BME280_temperature;BME280_humidity;BME280_pressure;Samples;Min_cycle;Max_cycle;Signal;HPM_P1;HPM_P2
2022/10/27 00:18:32;;;;;;;5.10;2.50;;;16.90;94.40;;;17.23;60.96;99462.50;4952359;28;118876;-77
2022/10/27 00:21:07;;;;;;;4.50;3.20;;;16.90;94.50;;;17.26;61.18;99471.34;4954461;28;124705;-76
2022/10/27 00:23:34;;;;;;;4.77;2.83;;;16.90;94.60;;;17.26;61.23;99469.38;4950722;28;123703;-77
2022/10/27 00:26:01;;;;;;;6.50;2.70;;;16.90;94.60;;;17.27;60.97;99471.00;4944172;28;120164;-76
2022/10/27 00:28:29;;;;;;;7.95;3.15;;;16.90;94.70;;;17.30;61.12;99472.28;4946104;28;118975;-76
2022/10/27 00:31:09;;;;;;;7.10;3.20;;;16.90;94.70;;;17.32;61.32;99464.41;4946632;28;124594;-76
2022/10/27 00:33:36;;;;;;;;;;;16.90;94.80;;;17.31;61.14;99471.97;4932821;28;123857;-78
2022/10/27 00:36:07;;;;;;;;;;;16.90;94.80;;;17.30;61.14;99486.25;4945589;28;120566;-76
2022/10/27 00:38:34;;;;;;;5.47;2.87;;;16.90;94.80;;;17.31;61.30;99473.94;4944533;28;119557;-77
2022/10/27 00:41:01;;;;;;;6.63;3.50;;;16.90;94.80;;;17.29;61.49;99477.06;4948096;28;123228;-76
2022/10/27 00:43:37;;;;;;;9.17;3.50;;;16.90;94.80;;;17.27;61.15;99484.97;4945791;28;124365;-81
2022/10/27 00:46:34;;;;;;;8.03;3.23;;;16.90;94.90;;;17.25;61.30;99486.47;4952046;28;119775;-77
2022/10/27 00:49:18;;;;;;;12.63;3.30;;;16.80;94.80;;;17.22;61.26;99491.59;4953112;28;119290;-77
2022/10/27 00:51:51;;;;;;;6.20;3.30;;;16.80;94.80;;;17.21;61.47;99487.13;4956382;28;123977;-78
2022/10/27 00:54:19;;;;;;;7.33;3.53;;;16.80;94.90;;;17.20;61.32;99493.91;4957436;28;123656;-76
2022/10/27 00:56:49;;;;;;;5.90;2.60;;;16.80;94.90;;;17.19;61.50;99489.47;4964685;28;119273;-77
2022/10/27 00:59:16;;;;;;;4.30;3.13;;;16.80;94.90;;;17.19;61.37;99489.47;4965938;28;118765;-77
2022/10/27 01:01:44;;;;;;;4.90;3.10;;;16.80;95.00;;;17.18;61.44;99481.44;4949700;28;123953;-77
2022/10/27 01:04:13;;;;;;;4.80;2.77;;;16.70;95.00;;;17.16;61.41;99484.53;4961212;28;123808;-76
2022/10/27 01:06:39;;;;;;;5.77;2.73;;;16.80;95.00;;;17.15;61.56;99488.50;4962788;28;119133;-76
2022/10/27 01:09:07;;;;;;;5.30;3.20;;;16.70;95.00;;;17.13;61.48;99490.81;4960372;28;119049;-75
2022/10/27 01:11:33;;;;;;;4.10;3.20;;;16.70;95.00;;;17.12;61.46;99491.97;4942007;28;124696;-80
2022/10/27 01:14:00;;;;;;;5.33;3.37;;;17.40;95.30;;;17.12;61.44;99499.56;4946282;28;122281;-76
2022/10/27 01:16:51;;;;;;;7.83;3.50;;;16.70;95.10;;;17.08;61.36;99488.22;4951494;28;119409;-76
2022/10/27 01:19:46;;;;;;;9.70;3.13;;;16.70;95.10;;;17.06;61.59;99493.34;4956954;28;118939;-77
2022/10/27 01:22:49;;;;;;;8.00;3.70;;;16.60;95.10;;;17.02;61.63;99484.00;4949722;28;123974;-76
2022/10/27 01:25:24;;;;;;;5.73;3.73;;;16.60;95.10;;;16.98;61.58;99477.47;4954110;28;123312;-79
2022/10/27 01:28:21;;;;;;;8.23;3.53;;;16.50;95.00;;;16.96;61.67;99468.63;4955110;28;120422;-76
2022/10/27 01:31:35;;;;;;;6.60;3.20;;;16.50;95.10;;;16.90;61.81;99475.53;4947699;28;119895;-76
2022/10/27 01:34:21;;;;;;;6.20;3.90;;;16.50;95.20;;;16.87;61.93;99482.63;4939930;28;123818;-76
2022/10/27 01:36:59;;;;;;;5.80;3.33;;;16.50;95.20;;;16.86;61.95;99480.16;4947145;28;122773;-76
2022/10/27 01:39:48;;;;;;;5.23;3.67;;;16.40;95.20;;;16.84;61.98;99476.88;4964066;28;119247;-76
2022/10/27 01:42:21;;;;;;;7.23;3.30;;;16.40;95.20;;;16.84;62.45;99488.06;4961760;28;119469;-77
2022/10/27 01:44:52;;;;;;;7.27;3.17;;;16.40;95.30;;;16.84;61.96;99488.06;4963204;28;123321;-77
2022/10/27 01:47:22;;;;;;;5.13;3.23;;;16.40;95.30;;;16.85;62.06;99486.91;4958106;28;123473;-78
2022/10/27 01:49:53;;;;;;;7.10;3.50;;;16.40;95.30;;;16.85;62.06;99487.72;4954107;28;120207;-76
2022/10/27 01:52:47;;;;;;;7.03;3.00;;;16.40;95.30;;;16.84;61.87;99490.84;4958998;28;118305;-77
2022/10/27 01:55:25;;;;;;;8.20;3.70;;;16.40;95.30;;;16.83;62.07;99486.44;4956848;28;124043;-76
2022/10/27 01:58:35;;;;;;;7.67;3.23;;;16.40;95.30;;;16.76;62.18;99479.38;4953843;28;123877;-77
2022/10/27 02:01:31;;;;;;;4.60;2.57;;;16.40;95.30;;;16.74;62.03;99478.91;4954603;28;118446;-76
2022/10/27 02:04:08;;;;;;;6.23;3.00;;;16.30;95.30;;;16.72;62.16;99472.00;4976810;28;118671;-76
2022/10/27 02:06:48;;;;;;;6.00;3.10;;;16.30;95.30;;;16.71;61.98;99473.16;4950551;28;123112;-76
2022/10/27 02:09:42;;;;;;;8.67;2.70;;;16.30;95.30;;;16.68;62.07;99468.25;4966277;28;124871;-76
2022/10/27 02:12:31;;;;;;;5.80;2.77;;;16.30;95.30;;;16.65;61.85;99469.72;4959912;28;120446;-77
2022/10/27 02:15:00;;;;;;;5.70;2.93;;;16.20;95.30;;;16.62;62.17;99464.84;4966563;28;119187;-76
2022/10/27 02:17:35;;;;;;;4.70;3.10;;;16.20;95.30;;;16.61;62.12;99468.78;4955862;28;124079;-76
2022/10/27 02:20:07;;;;;;;5.30;3.00;;;16.20;95.30;;;16.60;62.10;99474.69;4962932;28;124679;-77
2022/10/27 02:22:36;;;;;;;4.10;2.80;;;16.10;95.30;;;16.55;62.13;99478.50;4958353;28;120713;-77
2022/10/27 02:25:03;;;;;;;9.30;3.93;;;16.10;95.30;;;16.54;62.01;99479.66;4966494;28;120242;-76
2022/10/27 02:27:39;;;;;;;8.90;3.30;;;16.10;95.30;;;16.52;62.11;99481.94;4967853;28;123740;-80
2022/10/27 02:30:06;;;;;;;5.27;2.97;;;16.10;95.40;;;16.50;62.21;99485.09;4968544;28;123220;-82
2022/10/27 02:32:34;;;;;;;9.20;2.93;;;16.10;95.40;;;16.47;62.28;99491.34;4969012;28;119058;-82
2022/10/27 02:35:01;;;;;;;7.63;3.77;;;16.00;95.30;;;16.47;62.28;99487.72;4948854;28;117966;-77
2022/10/27 02:37:41;;;;;;;10.73;3.60;;;16.00;95.40;;;16.46;62.21;99478.53;4965062;28;124066;-76
2022/10/27 02:40:09;;;;;;;6.40;3.37;;;16.00;95.40;;;16.44;62.13;99482.81;4968950;28;123883;-76
2022/10/27 02:42:36;;;;;;;5.27;3.20;;;14.10;94.60;;;16.43;62.36;99483.97;4961452;28;119093;-76
2022/10/27 02:45:03;;;;;;;16.00;3.73;;;16.00;95.50;;;16.41;62.49;99480.69;4959386;28;119001;-76
2022/10/27 02:47:30;;;;;;;5.80;3.10;;;15.90;95.40;;;16.39;62.31;99480.19;4962533;28;124672;-76
2022/10/27 02:49:56;;;;;;;7.27;3.40;;;15.90;95.50;;;16.38;62.41;99475.78;4960016;28;123100;-77
2022/10/27 02:52:23;;;;;;;5.67;3.03;;;15.90;95.50;;;16.36;62.43;99478.91;4960301;28;119897;-77
2022/10/27 02:54:49;;;;;;;5.13;3.60;;;15.90;95.50;;;16.35;62.65;99472.50;4960989;28;119018;-77
2022/10/27 02:57:19;;;;;;;9.57;3.87;;;15.90;95.50;;;16.34;62.63;99475.66;4962576;28;124288;-77
2022/10/27 02:59:45;;;;;;;5.33;3.37;;;15.90;95.60;;;16.32;62.51;99481.53;4964172;28;123258;-76
2022/10/27 03:02:12;;;;;;;8.30;3.90;;;15.90;95.60;;;16.32;62.60;99489.91;4963058;28;118730;-76
2022/10/27 03:04:39;;;;;;;7.60;3.20;;;15.90;95.60;;;16.31;62.41;99474.34;4965304;28;119023;-75
2022/10/27 03:07:05;;;;;;;5.57;3.33;;;15.90;95.60;;;16.30;62.55;99469.09;4956974;28;124075;-76
2022/10/27 03:09:32;;;;;;;7.70;3.77;;;15.90;95.60;;;16.28;62.59;99477.81;4968308;28;122974;-78
2022/10/27 03:11:59;;;;;;;5.90;3.07;;;15.90;95.60;;;16.27;62.66;99483.69;4959437;28;120163;-76
2022/10/27 03:14:25;;;;;;;6.73;3.20;;;15.80;95.60;;;16.25;62.73;99478.44;4967093;28;120004;-76
2022/10/27 03:16:52;;;;;;;7.97;3.50;;;15.80;95.60;;;16.23;62.61;99475.19;4950347;28;124471;-76
2022/10/27 03:19:18;;;;;;;6.03;3.73;;;15.80;95.60;;;16.24;62.52;99481.59;4952109;28;123967;-75
2022/10/27 03:21:45;;;;;;;7.33;3.70;;;15.80;95.60;;;16.23;62.66;99479.97;4953323;28;119911;-78
2022/10/27 03:24:11;;;;;;;5.30;3.50;;;15.80;95.60;;;16.21;62.44;99473.88;4964605;28;118984;-77
2022/10/27 03:26:39;;;;;;;6.83;3.53;;;15.80;95.60;;;16.18;62.61;99469.00;4950385;28;124076;-78
2022/10/27 03:29:05;;;;;;;6.53;3.00;;;15.70;95.60;;;16.16;62.61;99466.53;4965710;28;124657;-76
2022/10/27 03:31:32;;;;;;;7.80;3.63;;;15.70;95.60;;;16.13;62.62;99469.97;4961417;28;119545;-78
2022/10/27 03:33:58;;;;;;;6.60;3.70;;;15.70;95.60;;;16.12;62.67;99473.94;4963641;28;119424;-77
2022/10/27 03:36:25;;;;;;;6.23;3.70;;;15.70;95.70;;;16.11;62.78;99477.84;4961531;28;124242;-77
2022/10/27 03:38:53;;;;;;;5.60;2.93;;;15.60;95.60;;;16.10;62.65;99471.47;4963074;28;122937;-78
2022/10/27 03:41:20;;;;;;;5.33;3.00;;;15.60;95.70;;;16.09;62.80;99474.56;4965552;28;119190;-76
2022/10/27 03:43:47;;;;;;;9.43;3.27;;;15.60;95.70;;;16.06;62.70;99470.47;4950914;28;117905;-77
2022/10/27 03:46:13;;;;;;;7.73;3.40;;;15.60;95.70;;;16.06;62.90;99478.03;4964432;28;124041;-76
2022/10/27 03:48:40;;;;;;;7.20;3.77;;;15.60;95.70;;;16.04;62.97;99480.31;4952969;28;123845;-77
2022/10/27 03:51:07;;;;;;;8.23;3.43;;;15.60;95.80;;;15.99;62.92;99480.53;4950361;28;120092;-76
2022/10/27 03:53:34;;;;;;;12.70;4.33;;;15.50;95.80;;;15.96;63.06;99476.44;4961674;28;118967;-77
2022/10/27 03:56:00;;;;;;;8.33;3.73;;;15.80;96.00;;;15.93;63.04;99474.28;4964238;28;124069;-79
2022/10/27 03:58:27;;;;;;;4.60;3.40;;;15.40;95.90;;;15.93;63.20;99463.13;4957495;28;124163;-77
2022/10/27 04:00:53;;;;;;;10.00;3.40;;;15.50;95.90;;;15.93;63.35;99468.69;4952690;28;120098;-76
2022/10/27 04:03:20;;;;;;;6.30;3.17;;;15.40;95.90;;;15.93;63.01;99473.47;4965938;28;120176;-76
2022/10/27 04:05:49;;;;;;;8.00;3.80;;;15.40;95.90;;;15.93;63.14;99470.69;4953199;28;124581;-76
2022/10/27 04:08:16;;;;;;;7.60;3.20;;;15.40;96.00;;;15.92;63.32;99469.88;4962092;28;123958;-77
2022/10/27 04:10:43;;;;;;;7.80;3.97;;;15.50;96.00;;;15.92;63.14;99472.66;4961377;28;118940;-77
2022/10/27 04:13:09;;;;;;;4.20;2.87;;;14.90;95.70;;;15.92;63.15;99475.44;4960426;28;120954;-77
2022/10/27 04:15:35;;;;;;;5.33;3.13;;;15.40;96.00;;;15.89;63.36;99482.50;4966013;28;123708;-77
2022/10/27 04:18:02;;;;;;;7.13;3.50;;;15.40;96.00;;;15.89;63.46;99485.28;4950490;28;123903;-76
2022/10/27 04:20:29;;;;;;;13.60;3.70;;;15.40;96.00;;;15.89;63.51;99479.72;4959728;28;119374;-77
2022/10/27 04:22:59;;;;;;;6.33;3.80;;;15.40;96.00;;;15.90;63.32;99483.31;4944026;28;121440;-78
2022/10/27 04:25:26;;;;;;;5.40;3.13;;;15.40;96.10;;;15.87;63.37;99484.78;4963803;28;124093;-76
2022/10/27 04:28:06;;;;;;;8.47;4.00;;;15.40;96.10;;;15.87;63.41;99483.97;4955321;28;124294;-74
2022/10/27 04:30:33;;;;;;;4.37;2.93;;;15.40;96.10;;;15.86;63.36;99483.16;4964307;28;119064;-78
2022/10/27 04:33:00;;;;;;;6.67;3.67;;;15.40;96.10;;;15.83;63.35;99489.41;4963091;28;118441;-77
2022/10/27 04:35:27;;;;;;;7.80;4.20;;;15.40;96.10;;;15.83;63.51;99486.63;4964277;28;125499;-77
2022/10/27 04:37:55;;;;;;;6.10;3.60;;;15.40;96.20;;;15.82;63.59;99489.72;4958154;28;123979;-77
2022/10/27 04:40:22;;;;;;;7.70;3.43;;;15.40;96.20;;;15.82;63.54;99487.75;4964739;28;119292;-76
2022/10/27 04:42:48;;;;;;;5.20;4.10;;;15.40;96.20;;;15.82;63.16;99487.75;4967946;28;119025;-76
2022/10/27 04:45:15;;;;;;;15.07;4.43;;;15.30;96.10;;;15.81;63.52;99488.09;4962053;28;124171;-77
2022/10/27 04:47:43;;;;;;;12.57;3.97;;;15.30;96.20;;;15.81;63.67;99502.84;4954367;28;124199;-76
2022/10/27 04:50:11;;;;;;;11.53;4.43;;;15.30;96.20;;;15.83;64.13;99502.53;4956536;28;120356;-78
2022/10/27 04:52:37;;;;;;;10.07;4.00;;;15.30;96.40;;;15.80;64.69;99495.63;4956325;28;119870;-76
2022/10/27 04:55:04;;;;;;;;;;;15.30;96.80;;;15.82;64.69;99493.31;4964423;28;123866;-77
2022/10/27 04:57:31;;;;;;;;;;;15.30;96.90;;;15.84;64.68;99485.44;4955477;28;123844;-78
2022/10/27 04:59:57;;;;;;;5.50;3.30;;;15.30;96.90;;;15.84;64.48;99496.59;4951933;28;119607;-76
2022/10/27 05:02:23;;;;;;;7.20;3.80;;;15.40;96.90;;;15.84;64.36;99496.59;4960579;28;118560;-77
2022/10/27 05:04:50;;;;;;;;;;;15.40;96.80;;;15.85;64.08;99491.84;4960094;28;123763;-80
2022/10/27 05:07:17;;;;;;;9.10;4.20;;;15.40;96.70;;;15.84;64.03;99491.03;4953729;28;122776;-74
2022/10/27 05:09:43;;;;;;;;;;;15.40;96.60;;;15.82;63.94;99487.75;4958189;28;119449;-76
2022/10/27 05:12:09;;;;;;;;;;;15.40;96.50;;;15.81;63.60;99491.69;4956914;28;118577;-75
2022/10/27 05:14:37;;;;;;;;;;;15.40;96.50;;;15.80;63.82;99490.06;4954353;28;124344;-78
2022/10/27 05:17:03;;;;;;;;;;;15.30;96.40;;;15.80;63.81;99490.06;4954377;28;123048;-76
2022/10/27 05:19:29;;;;;;;;;;;15.30;96.40;;;15.78;63.84;99481.22;4943688;28;118521;-73
2022/10/27 05:21:56;;;;;;;;;;;15.30;96.40;;;15.76;63.73;99489.06;4957264;28;118982;-76
2022/10/27 05:24:22;;;;;;;;;;;15.30;96.40;;;15.73;63.79;99489.75;4961213;28;124231;-76
2022/10/27 05:26:48;;;;;;;;;;;15.30;96.40;;;15.72;63.89;99492.88;4948640;28;123718;-82
2022/10/27 05:29:15;;;;;;;;;;;15.20;96.40;;;15.72;63.91;99492.88;4948836;28;119438;-76
2022/10/27 05:31:41;;;;;;;;;;;15.20;96.40;;;15.71;63.72;99499.56;4960806;28;117654;-77
2022/10/27 05:34:07;;;;;;;;;;;15.20;96.50;;;15.70;63.95;99490.41;4952713;28;123650;-90
2022/10/27 05:36:34;;;;;;;;;;;15.20;96.50;;;15.71;64.13;99488.44;4959315;28;123705;-79
2022/10/27 05:39:00;;;;;;;;;;;15.20;96.50;;;15.70;63.79;99479.25;4958545;28;120432;-78
2022/10/27 05:41:27;;;;;;;;;;;15.20;96.50;;;15.69;63.86;99486.00;4949378;28;119310;-79
2022/10/27 05:43:53;;;;;;;;;;;15.20;96.50;;;15.71;63.97;99477.28;4953600;28;124250;-79
2022/10/27 05:46:19;;;;;;;;;;;15.20;96.50;;;15.67;64.02;99482.69;4948665;28;123916;-77
2022/10/27 05:48:45;;;;;;;;;;;15.20;96.50;;;15.65;64.06;99474.63;4945303;28;119422;-77
2022/10/27 05:51:12;;;;;;;;;;;15.20;96.50;;;15.67;64.05;99479.88;4945592;28;119398;-77
2022/10/27 05:53:38;;;;;;;;;;;15.20;96.50;;;15.67;63.96;99477.09;4947344;28;123735;-79
2022/10/27 05:56:05;;;;;;;;;;;15.20;96.50;;;15.66;63.97;99469.88;4958618;28;124602;-79
2022/10/27 05:58:31;;;;;;;;;;;15.20;96.50;;;15.67;63.78;99468.75;4962302;28;121740;-77
2022/10/27 06:00:59;;;;;;;;;;;15.20;96.50;;;15.67;63.45;99463.19;4954949;28;118700;-75
2022/10/27 06:03:25;;;;;;;;;;;15.20;96.50;;;15.67;63.97;99468.75;4962398;28;124986;-77
2022/10/27 06:05:52;;;;;;;;;;;15.20;96.50;;;15.67;63.61;99458.41;4947446;28;124126;-75
2022/10/27 06:08:19;;;;;;;;;;;15.20;96.50;;;15.67;63.99;99452.84;4961830;28;119612;-77
2022/10/27 06:10:45;;;;;;;;;;;15.20;96.50;;;15.70;63.98;99456.16;4956159;28;119122;-88
2022/10/27 06:13:17;;;;;;;;;;;15.20;96.40;;;15.70;63.72;99473.69;4944264;28;123449;-79
2022/10/27 06:15:43;;;;;;;;;;;15.20;96.40;;;15.68;63.79;99467.59;4957304;28;123854;-77
2022/10/27 06:18:12;;;;;;;;;;;15.20;96.40;;;15.68;63.51;99465.66;4960716;28;118716;-77
2022/10/27 06:20:39;;;;;;;;;;;15.20;96.40;;;15.70;63.79;99476.47;4960287;28;118721;-79
2022/10/27 06:23:05;;;;;;;;;;;15.20;96.40;;;15.69;63.71;99480.41;4952355;28;124700;-76
2022/10/27 06:25:32;;;;;;;;;;;14.50;96.10;;;15.68;63.58;99487.09;4957556;28;124564;-77
2022/10/27 06:27:58;;;;;;;;;;;15.20;96.40;;;15.67;63.69;99491.84;4961526;28;120960;-80
2022/10/27 06:30:24;;;;;;;;;;;15.20;96.40;;;15.69;63.76;99480.41;4962952;28;119642;-76
2022/10/27 06:32:51;;;;;;;;;;;15.20;96.40;;;15.71;63.63;99494.81;4952749;28;124202;-75
2022/10/27 06:35:17;;;;;;;;;;;15.20;96.40;;;15.72;63.52;99490.91;4959381;28;124062;-77
2022/10/27 06:37:44;;;;;;;;;;;15.20;96.40;;;15.76;63.75;99496.63;4964588;28;119958;-75
2022/10/27 06:40:12;;;;;;;;;;;15.20;96.40;;;15.78;63.28;99508.25;4962752;28;118841;-76
2022/10/27 06:42:39;;;;;;;;;;;15.20;96.30;;;15.81;63.52;99508.41;4963580;28;125030;-77
2022/10/27 06:45:09;;;;;;;;;;;15.30;96.30;;;15.83;63.25;99510.88;4966329;28;123447;-75
2022/10/27 06:47:35;;;;;;;;;;;15.30;96.30;;;15.81;63.21;99513.97;4967417;28;118268;-77
2022/10/27 06:50:01;;;;;;;;;;;15.30;96.30;;;15.82;63.01;99514.78;4967299;28;118986;-77
2022/10/27 06:52:27;;;;;;;;;;;15.30;96.40;;;15.84;63.04;99512.50;4958490;28;124830;-76
2022/10/27 06:54:54;;;;;;;;;;;15.30;96.40;;;15.88;63.18;99519.06;4963659;28;124477;-77
2022/10/27 06:57:21;;;;;;;;;;;15.30;96.30;;;15.93;63.13;99524.44;4961581;28;119652;-77
2022/10/27 06:59:47;;;;;;;;;;;15.40;96.30;;;15.97;63.00;99521.84;4943617;28;120270;-76
2022/10/27 07:02:16;;;;;;;;;;;15.40;96.30;;;16.01;62.75;99511.66;4961404;28;124479;-77
2022/10/27 07:04:42;;;;;;;;;;;15.40;96.30;;;16.02;62.72;99525.25;4947872;28;123943;-77
2022/10/27 07:07:08;;;;;;;8.90;5.57;;;15.40;96.20;;;16.06;62.63;99525.41;4958661;28;118276;-79
2022/10/27 07:09:35;;;;;;;11.40;5.47;;;15.50;96.20;;;16.10;62.81;99518.03;4979897;28;120370;-76
2022/10/27 07:12:01;;;;;;;17.80;5.27;;;15.50;96.10;;;16.13;62.55;99512.59;4956597;28;124503;-77
2022/10/27 07:14:28;;;;;;;12.73;4.87;;;15.60;96.10;;;16.17;62.35;99511.94;4949943;28;124172;-77
2022/10/27 07:16:54;;;;;;;11.40;4.73;;;15.60;96.00;;;16.19;62.33;99513.25;4959111;28;119222;-77
2022/10/27 07:19:21;;;;;;;13.63;5.50;;;15.60;96.00;;;16.21;62.12;99508.16;4947887;28;119111;-78
2022/10/27 07:21:47;;;;;;;5.90;3.90;;;15.60;95.90;;;16.24;62.14;99515.84;4948937;28;123878;-79
2022/10/27 07:24:14;;;;;;;6.67;4.80;;;15.60;95.90;;;16.29;62.12;99524.03;4956957;28;123887;-77
2022/10/27 07:26:41;;;;;;;12.23;5.70;;;15.70;96.00;;;16.32;61.88;99522.56;4962827;28;120103;-76
2022/10/27 07:29:07;;;;;;;9.40;5.00;;;15.70;95.90;;;16.32;61.73;99525.34;4964609;28;119081;-79
2022/10/27 07:31:33;;;;;;;9.77;5.63;;;15.70;95.90;;;16.31;61.94;99518.16;4953014;28;124112;-76
2022/10/27 07:34:00;;;;;;;16.50;5.57;;;15.70;95.90;;;16.31;61.92;99521.75;4963177;28;123881;-77
2022/10/27 07:36:26;;;;;;;12.13;5.20;;;15.70;95.80;;;16.32;61.77;99515.00;4964743;28;119261;-76
2022/10/27 07:38:53;;;;;;;11.80;4.50;;;15.70;95.80;;;16.33;61.69;99519.44;4963293;28;118570;-80
2022/10/27 07:41:20;;;;;;;8.93;4.60;;;15.70;95.80;;;16.32;61.78;99522.56;4958741;28;123775;-75
2022/10/27 07:43:47;;;;;;;8.47;4.77;;;15.70;95.80;;;16.29;61.57;99521.25;4955386;28;123240;-75
2022/10/27 07:46:14;;;;;;;9.60;5.53;;;15.60;95.70;;;16.24;61.60;99518.66;4965643;28;119263;-76
2022/10/27 07:48:41;;;;;;;7.60;5.00;;;15.60;96.00;;;16.20;61.94;99523.25;4962743;28;119333;-78
2022/10/27 07:51:07;;;;;;;11.20;5.73;;;15.60;95.80;;;16.20;61.77;99526.06;4953933;28;124029;-77
2022/10/27 07:53:34;;;;;;;7.70;4.43;;;15.50;95.80;;;16.22;61.88;99522.91;4954953;28;123437;-80
2022/10/27 07:56:01;;;;;;;15.63;5.37;;;15.60;95.80;;;16.23;61.72;99524.56;4963580;28;120114;-77
2022/10/27 07:58:28;;;;;;;7.03;5.07;;;15.60;95.80;;;16.27;61.93;99526.34;4962684;28;119051;-78
2022/10/27 08:00:57;;;;;;;9.97;5.27;;;15.50;95.80;;;16.30;61.90;99531.25;4956002;28;124044;-75
2022/10/27 08:03:28;;;;;;;10.20;5.47;;;15.60;95.90;;;16.33;61.99;99529.75;4964048;28;122819;-77
2022/10/27 08:05:57;;;;;;;8.40;4.93;;;15.70;95.90;;;16.35;62.05;99531.06;4951616;28;120292;-76
2022/10/27 08:08:23;;;;;;;10.70;4.97;;;15.70;95.90;;;16.39;62.09;99538.78;4948536;28;119446;-76
2022/10/27 08:10:50;;;;;;;11.20;5.43;;;15.70;95.90;;;16.41;62.05;99544.84;4960855;28;124083;-77
2022/10/27 08:13:16;;;;;;;14.43;5.37;;;15.80;95.90;;;16.40;62.13;99546.81;4960909;28;124238;-76
2022/10/27 08:15:43;;;;;;;9.10;4.83;;;15.80;96.00;;;16.41;61.96;99547.63;4945831;28;119721;-77
2022/10/27 08:18:10;;;;;;;10.57;5.57;;;15.80;96.00;;;16.41;62.00;99548.44;4950885;28;118737;-78
2022/10/27 08:20:44;;;;;;;10.47;4.57;;;15.80;96.00;;;16.46;62.01;99555.81;4944709;28;124570;-77
2022/10/27 08:23:14;;;;;;;10.50;4.93;;;15.80;96.00;;;16.50;61.98;99556.81;4956781;28;123794;-80
2022/10/27 08:25:42;;;;;;;14.57;4.43;;;15.90;96.00;;;16.54;62.06;99558.56;4955651;28;119773;-79
2022/10/27 08:28:10;;;;;;;7.83;5.03;;;15.90;96.00;;;16.57;61.75;99552.31;4964073;28;119213;-77
2022/10/27 08:30:37;;;;;;;7.53;4.43;;;15.90;95.90;;;16.61;61.90;99554.47;4950796;28;123980;-77
2022/10/27 08:33:04;;;;;;;10.07;4.57;;;15.90;95.90;;;16.63;61.65;99550.19;4956493;28;123753;-80
2022/10/27 08:35:32;;;;;;;14.23;4.70;;;16.00;95.90;;;16.65;61.57;99555.41;4952897;28;119752;-78
2022/10/27 08:38:10;;;;;;;6.80;3.80;;;16.00;95.80;;;16.66;61.56;99548.72;4955857;28;119058;-77
2022/10/27 08:40:56;;;;;;;9.77;3.47;;;16.00;95.80;;;16.69;61.53;99543.25;4956332;28;124147;-78
2022/10/27 08:43:56;;;;;;;9.20;4.63;;;16.10;95.80;;;16.72;61.39;99542.59;4963417;28;123963;-78
2022/10/27 08:46:40;;;;;;;8.37;4.13;;;16.10;95.70;;;16.74;61.55;99543.06;4946091;28;119370;-77
2022/10/27 08:49:50;;;;;;;11.40;4.53;;;16.10;95.70;;;16.77;61.53;99538.84;4956796;28;118760;-79
2022/10/27 08:53:03;;;;;;;7.10;4.63;;;16.20;95.70;;;16.81;61.31;99542.56;4968822;28;124079;-77
2022/10/27 08:55:37;;;;;;;8.77;4.63;;;16.20;95.70;;;16.84;61.50;99543.88;4966576;28;123855;-78
2022/10/27 08:58:30;;;;;;;7.90;4.47;;;16.20;95.70;;;16.84;61.70;99535.50;4963262;28;119883;-76
2022/10/27 09:01:05;;;;;;;10.13;5.10;;;16.20;95.70;;;16.86;61.59;99552.75;4958756;28;119756;-76
2022/10/27 09:03:43;;;;;;;9.70;4.90;;;16.30;95.70;;;16.91;61.57;99544.19;4967150;28;124079;-77
2022/10/27 09:06:23;;;;;;;9.40;4.40;;;16.30;95.80;;;16.96;61.51;99541.19;4956552;28;123666;-76
2022/10/27 09:09:20;;;;;;;11.13;4.37;;;16.40;95.80;;;17.03;61.37;99547.03;4946000;28;119540;-78
2022/10/27 09:12:36;;;;;;;11.00;4.73;;;16.40;95.70;;;17.05;61.38;99541.94;4960017;28;118980;-77
2022/10/27 09:15:33;;;;;;;6.50;4.23;;;16.50;95.70;;;17.10;61.29;99540.94;4955105;28;122903;-79
2022/10/27 09:18:31;;;;;;;9.70;4.30;;;16.50;95.70;;;17.15;61.22;99533.19;4965053;28;122855;-78
2022/10/27 09:21:03;;;;;;;5.53;3.83;;;16.60;95.70;;;17.20;61.32;99533.00;4954513;28;119058;-78
2022/10/27 09:23:46;;;;;;;14.80;5.00;;;16.70;95.70;;;17.30;61.19;99530.94;4952334;28;119064;-75
2022/10/27 09:26:15;;;;;;;9.80;5.10;;;16.70;95.60;;;17.39;61.17;99532.53;4963262;28;124333;-81
2022/10/27 09:28:53;;;;;;;6.60;3.93;;;16.80;95.70;;;17.49;61.01;99536.06;4944638;28;123937;-75
2022/10/27 09:31:34;;;;;;;7.17;4.67;;;16.90;95.60;;;17.57;60.75;99538.81;4956399;28;119334;-75
2022/10/27 09:34:36;;;;;;;9.97;4.23;;;17.00;95.60;;;17.64;60.74;99533.47;4961176;28;119034;-75
2022/10/27 09:37:14;;;;;;;7.03;3.93;;;17.10;95.60;;;17.74;60.43;99526.66;4947942;28;124041;-75
2022/10/27 09:39:53;;;;;;;7.10;3.93;;;17.20;95.60;;;17.83;60.68;99526.59;4958375;28;122864;-75
2022/10/27 09:42:20;;;;;;;13.60;4.70;;;17.20;95.50;;;17.93;60.30;99530.97;4944562;28;120641;-83
2022/10/27 09:45:00;;;;;;;7.93;4.00;;;17.30;95.50;;;18.02;60.24;99518.50;4960445;28;119044;-77
2022/10/27 09:47:36;;;;;;;15.33;4.47;;;17.40;95.50;;;18.11;60.00;99521.25;4947055;28;123986;-76
2022/10/27 09:50:07;;;;;;;7.13;4.13;;;17.50;95.40;;;18.19;60.05;99517.53;4952131;28;123997;-75
2022/10/27 09:52:41;;;;;;;10.73;4.43;;;17.60;95.30;;;18.26;59.86;99520.56;4955199;28;120376;-76
2022/10/27 09:55:09;;;;;;;8.90;4.37;;;17.70;95.30;;;18.35;59.66;99514.88;4944233;28;120018;-76
2022/10/27 09:57:40;;;;;;;9.83;3.93;;;17.70;95.20;;;18.46;59.53;99510.47;4942396;28;124002;-75
2022/10/27 10:00:22;;;;;;;13.87;5.00;;;17.80;95.20;;;18.55;59.45;99508.38;4950203;28;123813;-78
2022/10/27 10:03:03;;;;;;;7.00;4.00;;;18.00;95.20;;;18.68;59.09;99512.00;4961937;28;119455;-75
2022/10/27 10:05:34;;;;;;;8.03;3.73;;;18.10;95.10;;;18.77;58.93;99512.72;4952943;28;119477;-76
2022/10/27 10:08:25;;;;;;;8.03;4.40;;;18.20;95.00;;;18.90;58.75;99513.53;4956603;28;124714;-77
2022/10/27 10:11:18;;;;;;;8.60;5.00;;;18.30;94.90;;;19.02;58.75;99506.28;4958236;28;124080;-76
2022/10/27 10:14:04;;;;;;;13.27;5.70;;;18.40;94.80;;;19.14;58.37;99509.91;4963851;28;118684;-75
2022/10/27 10:16:32;;;;;;;7.90;4.27;;;18.50;94.70;;;19.26;58.17;99509.03;4960537;28;119740;-83
2022/10/27 10:19:06;;;;;;;11.43;4.27;;;18.60;94.60;;;19.39;57.66;99505.06;4963135;28;124113;-76
2022/10/27 10:21:53;;;;;;;6.53;4.30;;;18.80;94.60;;;19.53;57.71;99512.25;4959835;28;124877;-76
2022/10/27 10:24:26;;;;;;;10.90;4.60;;;18.90;94.40;;;19.67;57.23;99514.72;4962810;28;119890;-77
2022/10/27 10:26:56;;;;;;;8.63;4.10;;;19.00;94.40;;;19.79;57.36;99507.06;4956254;28;118903;-76
2022/10/27 10:29:47;;;;;;;7.87;4.20;;;19.20;94.30;;;19.93;56.79;99494.59;4963617;28;124816;-77
2022/10/27 10:32:34;;;;;;;7.03;4.20;;;19.30;94.20;;;20.09;56.86;99492.66;4958596;28;123768;-75
2022/10/27 10:35:02;;;;;;;11.27;4.80;;;19.40;94.10;;;20.24;56.37;99488.25;4962205;28;119308;-77
2022/10/27 10:37:45;;;;;;;5.10;3.80;;;19.60;93.90;;;20.38;55.96;99494.22;4964991;28;119665;-76
2022/10/27 10:40:17;;;;;;;11.90;4.83;;;19.70;93.80;;;20.54;55.77;99488.66;4959652;28;124062;-76
2022/10/27 10:42:46;;;;;;;7.83;3.77;;;19.90;93.80;;;20.69;55.25;99487.84;4963555;28;124147;-76
2022/10/27 10:45:21;;;;;;;6.40;3.90;;;20.00;93.60;;;20.86;54.79;99486.63;4957978;28;120692;-77
2022/10/27 10:47:56;;;;;;;6.10;3.63;;;20.20;93.50;;;21.03;54.41;99485.41;4962606;28;119953;-76
2022/10/27 10:50:23;;;;;;;7.37;3.93;;;20.30;93.30;;;21.22;54.42;99481.00;4958727;28;124075;-76
2022/10/27 10:52:53;;;;;;;9.10;3.60;;;20.50;93.20;;;21.39;53.85;99483.44;4948532;28;123182;-77
2022/10/27 10:55:29;;;;;;;9.90;3.60;;;20.60;92.80;;;21.53;52.70;99478.13;4951049;28;118303;-77
2022/10/27 10:57:57;;;;;;;10.27;3.30;;;20.80;92.40;;;21.69;52.93;99480.06;4958053;28;118156;-76
2022/10/27 11:00:24;;;;;;;7.80;4.10;;;21.00;92.50;;;21.82;53.07;99462.66;4945419;28;123696;-77